Argyle, Illinois
Current Conditions -  °F | °C
As of 7:54 AM on Monday 22 Dec 2014 (Local Time) from KRFD Reporting Station
Haze Haze  
Wind Chill: 25°   Ceiling: 8000
Heat Index: 33°   Visibility: 4mi
Dew Point: 29°   Wind: 10mph
Humidity: 85%   Direction: 120°ESE
Pressure: 29.88"   Gusts: NA
Location:  42.3911°N, 88.9094°W
Report Text: KRFD 221354Z 12009KT 4SM BR OVC080 01/M02 A2988 RMK AO2 SLP125 T00061017
Loading
Personal Weather Stations






























Interactive Weather Map New forecast layout! Learn more

10-Day Weather Forecast

Advertisements
Track Severe Weather on mobile